Time;durP1;ratioP1;P1;durP2;ratioP2;P2;SDS_P1;SDS_P2;PMS_P1;PMS_P2;Temp;Humidity;BMP_temperature;BMP_pressure;BME280_temperature;BME280_humidity;BME280_pressure;Samples;Min_cycle;Max_cycle;Signal;HPM_P1;HPM_P2
2023/09/06 00:01:05;;;;;;;5.20;3.55;;;;;;;29.91;41.94;101897.88;5065073;28;20052;-74
2023/09/06 00:03:30;;;;;;;6.80;3.75;;;;;;;29.99;41.48;101897.28;5085107;28;20217;-74
2023/09/06 00:05:58;;;;;;;5.25;3.45;;;;;;;29.87;41.75;101893.69;5083549;28;20097;-75
2023/09/06 00:08:24;;;;;;;5.03;3.75;;;;;;;29.32;42.50;101904.00;5071507;28;20473;-74
2023/09/06 00:10:49;;;;;;;6.50;3.42;;;;;;;29.22;43.18;101898.41;5086700;28;20028;-74
2023/09/06 00:13:17;;;;;;;5.47;3.38;;;;;;;29.10;43.25;101897.50;5088623;28;20031;-74
2023/09/06 00:15:42;;;;;;;6.10;3.90;;;;;;;29.56;42.18;101886.03;5089191;28;20028;-74
2023/09/06 00:18:08;;;;;;;8.85;3.38;;;;;;;29.73;41.56;101898.28;5090056;28;20040;-74
2023/09/06 00:20:35;;;;;;;6.05;3.65;;;;;;;29.50;41.93;101899.97;5083607;28;20016;-75
2023/09/06 00:23:04;;;;;;;4.70;3.58;;;;;;;29.67;41.85;101887.09;5069647;28;20032;-74
2023/09/06 00:25:31;;;;;;;3.35;3.00;;;;;;;29.55;42.20;101892.44;5069219;28;20047;-74
2023/09/06 00:27:58;;;;;;;6.10;3.45;;;;;;;29.45;42.50;101899.47;5069193;28;20543;-75
2023/09/06 00:30:23;;;;;;;4.78;3.65;;;;;;;29.59;42.27;101896.63;5084687;28;20031;-75
2023/09/06 00:32:52;;;;;;;8.57;3.67;;;;;;;29.03;43.26;101901.56;5090564;28;20484;-74
2023/09/06 00:35:24;;;;;;;8.38;3.22;;;;;;;29.76;42.42;101897.19;5087468;28;20533;-74
2023/09/06 00:37:50;;;;;;;5.45;2.88;;;;;;;29.61;42.72;101896.50;5089713;28;20024;-75
2023/09/06 00:40:19;;;;;;;5.22;3.20;;;;;;;29.66;41.95;101891.59;5089643;28;20028;-73
2023/09/06 00:42:46;;;;;;;3.92;3.10;;;;;;;29.56;42.50;101901.34;5088591;28;20024;-75
2023/09/06 00:45:12;;;;;;;5.60;3.40;;;;;;;29.34;42.21;101896.69;5088849;28;20031;-74
2023/09/06 00:47:37;;;;;;;4.97;3.53;;;;;;;29.46;42.11;101903.88;5089508;28;20028;-74
2023/09/06 00:50:04;;;;;;;4.00;3.28;;;;;;;29.32;43.07;101898.63;5092825;28;20058;-75
2023/09/06 00:52:30;;;;;;;3.78;2.92;;;;;;;29.44;42.85;101897.72;5080783;28;20065;-75
2023/09/06 00:55:01;;;;;;;6.72;3.58;;;;;;;29.10;42.83;101900.19;5072992;28;20020;-74
2023/09/06 00:57:29;;;;;;;14.65;3.90;;;;;;;28.98;43.03;101895.69;5074474;28;20100;-74
2023/09/06 00:59:58;;;;;;;6.07;3.67;;;;;;;29.20;42.25;101901.22;5092203;28;20044;-74
2023/09/06 01:02:24;;;;;;;7.70;3.40;;;;;;;29.25;42.91;101898.22;5081657;28;20032;-74
2023/09/06 01:04:49;;;;;;;4.53;3.58;;;;;;;29.35;42.14;101901.13;5085592;28;20499;-74
2023/09/06 01:07:16;;;;;;;7.15;3.40;;;;;;;29.35;42.65;101898.44;5092755;28;20032;-74
2023/09/06 01:09:41;;;;;;;7.38;3.97;;;;;;;28.92;43.05;101896.94;5092618;28;20035;-74
2023/09/06 01:12:10;;;;;;;6.00;3.28;;;;;;;29.00;42.84;101904.50;5092081;28;20028;-74
2023/09/06 01:14:40;;;;;;;5.50;3.45;;;;;;;28.38;44.19;101900.72;5093070;28;20105;-74
2023/09/06 01:17:08;;;;;;;5.25;3.35;;;;;;;28.54;44.01;101898.66;5073358;28;20472;-74
2023/09/06 01:19:36;;;;;;;4.95;3.47;;;;;;;28.66;43.51;101904.19;5073524;28;20024;-74
2023/09/06 01:22:26;;;;;;;4.63;3.25;;;;;;;28.82;43.52;101896.75;5072229;28;20115;-76
2023/09/06 01:24:52;;;;;;;5.18;3.65;;;;;;;28.94;42.98;101889.66;5072637;28;20036;-74
2023/09/06 01:27:18;;;;;;;5.82;3.65;;;;;;;29.23;42.57;101895.59;5092187;28;20077;-74
2023/09/06 01:29:43;;;;;;;7.90;3.92;;;;;;;28.63;43.78;101890.94;5092514;28;20028;-74
2023/09/06 01:32:09;;;;;;;10.65;3.75;;;;;;;28.64;43.74;101898.91;5085093;28;20062;-74
2023/09/06 01:34:35;;;;;;;7.00;3.30;;;;;;;28.85;43.70;101898.38;5091491;28;20028;-74
2023/09/06 01:37:00;;;;;;;5.13;3.47;;;;;;;29.07;42.38;101900.38;5086342;28;20028;-74
2023/09/06 01:39:26;;;;;;;4.53;3.25;;;;;;;28.86;43.16;101900.94;5071153;28;20082;-74
2023/09/06 01:41:51;;;;;;;5.38;3.55;;;;;;;28.84;43.34;101900.22;5076699;28;20391;-74
2023/09/06 01:44:16;;;;;;;5.60;3.47;;;;;;;29.10;42.82;101901.03;5090635;28;20072;-74
2023/09/06 01:46:42;;;;;;;5.65;3.47;;;;;;;28.88;43.65;101900.84;5092167;28;20047;-75
2023/09/06 01:49:10;;;;;;;4.68;3.50;;;;;;;29.13;42.90;101899.94;5092290;28;20028;-74
2023/09/06 01:51:36;;;;;;;5.95;3.42;;;;;;;29.03;43.09;101905.13;5090676;28;20039;-74
2023/09/06 01:54:04;;;;;;;5.07;3.40;;;;;;;28.86;43.42;101902.78;5091368;28;20040;-74
2023/09/06 01:56:30;;;;;;;4.10;3.33;;;;;;;28.76;43.57;101899.91;5091396;28;20075;-74
2023/09/06 01:58:56;;;;;;;5.95;3.47;;;;;;;28.83;43.49;101903.00;5090760;28;20032;-74
2023/09/06 02:01:21;;;;;;;4.30;3.30;;;;;;;28.36;44.36;101900.81;5089615;28;20055;-74
2023/09/06 02:03:47;;;;;;;4.57;3.40;;;;;;;28.56;43.74;101907.50;5091600;28;20088;-74
2023/09/06 02:06:12;;;;;;;5.90;3.58;;;;;;;28.85;43.18;101901.94;5088948;28;20024;-74
2023/09/06 02:08:39;;;;;;;4.35;3.17;;;;;;;28.82;43.10;101909.34;5071247;28;20032;-75
2023/09/06 02:11:06;;;;;;;5.55;3.67;;;;;;;28.79;43.52;101899.66;5071201;28;20099;-74
2023/09/06 02:13:32;;;;;;;4.18;3.10;;;;;;;28.72;43.58;101901.94;5083774;28;20024;-74
2023/09/06 02:15:58;;;;;;;4.25;3.22;;;;;;;28.63;43.86;101912.44;5083426;28;20488;-74
2023/09/06 02:18:25;;;;;;;5.00;3.67;;;;;;;28.60;43.98;101908.13;5071161;28;20449;-73
2023/09/06 02:20:50;;;;;;;11.45;3.35;;;;;;;28.55;44.23;101911.16;5078443;28;20391;-74
2023/09/06 02:23:16;;;;;;;8.40;3.83;;;;;;;28.56;43.74;101912.00;5088200;28;20027;-74
2023/09/06 02:25:44;;;;;;;5.00;3.30;;;;;;;28.90;43.27;101909.66;5071304;28;20020;-75
2023/09/06 02:28:11;;;;;;;5.55;3.35;;;;;;;28.63;43.50;101907.06;5081706;28;20392;-74
2023/09/06 02:30:36;;;;;;;5.55;3.72;;;;;;;28.64;43.78;101903.44;5090578;28;20552;-74
2023/09/06 02:33:04;;;;;;;5.53;3.65;;;;;;;28.82;42.98;101918.28;5092122;28;20024;-74
2023/09/06 02:35:29;;;;;;;5.45;3.67;;;;;;;28.70;43.56;101919.13;5090392;28;20038;-74
2023/09/06 02:37:55;;;;;;;6.18;3.92;;;;;;;28.82;43.51;101910.19;5091305;28;20020;-74
2023/09/06 02:40:20;;;;;;;5.72;3.67;;;;;;;29.15;43.18;101915.97;5088412;28;20783;-74
2023/09/06 02:42:49;;;;;;;4.35;2.63;;;;;;;28.83;43.80;101914.63;5089847;28;20046;-74
2023/09/06 02:45:14;;;;;;;4.72;3.58;;;;;;;28.54;43.62;101922.88;5090780;28;20016;-73
2023/09/06 02:47:49;;;;;;;4.32;3.55;;;;;;;28.70;43.52;101919.13;5090424;28;20032;-74
2023/09/06 02:50:16;;;;;;;4.18;3.08;;;;;;;28.46;44.45;101911.78;5089961;28;20483;-74
2023/09/06 02:52:44;;;;;;;6.32;3.50;;;;;;;28.64;43.92;101920.44;5083274;28;20573;-74
2023/09/06 02:55:13;;;;;;;5.55;3.55;;;;;;;28.61;44.04;101917.94;5090343;28;20547;-74
2023/09/06 02:57:41;;;;;;;4.68;3.47;;;;;;;28.49;44.29;101914.25;5090839;28;20078;-74
2023/09/06 03:00:25;;;;;;;7.68;3.65;;;;;;;28.34;45.09;101918.00;5086673;28;20480;-74
2023/09/06 03:02:58;;;;;;;4.82;3.53;;;;;;;28.56;43.74;101918.25;5033747;28;20485;-75
2023/09/06 03:05:26;;;;;;;5.40;3.47;;;;;;;28.34;44.33;101916.16;5050139;28;20099;-74
2023/09/06 03:07:53;;;;;;;4.57;3.13;;;;;;;28.48;44.08;101919.75;5055021;28;20028;-74
2023/09/06 03:10:20;;;;;;;5.30;3.40;;;;;;;28.35;44.12;101909.84;5069722;28;20112;-75
2023/09/06 03:12:56;;;;;;;5.07;3.55;;;;;;;28.35;44.68;101906.31;5052910;28;20048;-76
2023/09/06 03:15:23;;;;;;;4.28;3.40;;;;;;;28.54;43.99;101914.81;5068256;28;20058;-75
2023/09/06 03:17:51;;;;;;;4.28;3.35;;;;;;;28.27;44.75;101913.06;5032936;28;20025;-75
2023/09/06 03:23:02;;;;;;;5.28;3.38;;;;;;;28.30;44.70;101921.88;5062571;28;20040;-74
2023/09/06 03:25:32;;;;;;;4.70;3.50;;;;;;;28.26;44.51;101922.09;5052258;28;20032;-74
2023/09/06 03:28:00;;;;;;;5.53;3.85;;;;;;;28.38;44.29;101916.84;5053305;28;20507;-74
2023/09/06 03:30:27;;;;;;;4.53;3.60;;;;;;;28.22;44.81;101920.59;5069871;28;20103;-74
2023/09/06 03:32:54;;;;;;;4.82;3.60;;;;;;;27.70;45.36;101934.78;5041042;28;20035;-74
2023/09/06 03:35:22;;;;;;;8.95;3.65;;;;;;;27.98;45.21;101924.88;5050511;28;20060;-74
2023/09/06 03:37:47;;;;;;;5.97;3.65;;;;;;;28.12;45.10;101929.38;5069885;28;20039;-74
2023/09/06 03:41:01;;;;;;;5.03;3.40;;;;;;;27.93;45.37;101928.75;5053028;28;20115;-76
2023/09/06 03:42:58;;;;;;;6.63;3.50;;;;;;;27.81;45.55;101937.63;5047362;28;20401;-75
2023/09/06 03:45:24;;;;;;;5.05;3.80;;;;;;;28.21;44.84;101939.50;5033748;28;20036;-75
2023/09/06 03:47:54;;;;;;;5.97;3.95;;;;;;;28.22;44.62;101936.72;5033322;28;20031;-74
2023/09/06 03:50:27;;;;;;;7.13;3.97;;;;;;;27.85;45.78;101939.13;5033874;28;20132;-76
2023/09/06 03:52:53;;;;;;;6.45;3.80;;;;;;;28.16;45.06;101941.63;5040743;28;20025;-75
2023/09/06 03:55:19;;;;;;;4.07;3.22;;;;;;;28.19;44.85;101942.28;5033207;28;20437;-75
2023/09/06 03:57:45;;;;;;;5.32;3.78;;;;;;;27.91;45.27;101938.72;5052857;28;20046;-74
2023/09/06 04:00:32;;;;;;;5.57;3.70;;;;;;;28.05;45.05;101939.66;5060190;28;20138;-75
2023/09/06 04:02:58;;;;;;;4.93;3.83;;;;;;;28.12;44.70;101943.66;5087883;28;20054;-75
2023/09/06 04:05:27;;;;;;;7.10;3.88;;;;;;;27.74;45.72;101949.72;5090048;28;20551;-75
2023/09/06 04:07:59;;;;;;;5.28;3.92;;;;;;;27.85;45.42;101939.13;5089240;28;20115;-74
2023/09/06 04:10:27;;;;;;;5.57;3.60;;;;;;;28.01;45.07;101943.50;5088426;28;20059;-76
2023/09/06 04:12:55;;;;;;;5.25;3.58;;;;;;;27.93;45.34;101939.50;5088582;28;20020;-74
2023/09/06 04:15:23;;;;;;;6.53;4.20;;;;;;;27.70;45.92;101940.16;5088680;28;20032;-74
2023/09/06 04:17:58;;;;;;;8.38;4.35;;;;;;;27.89;45.59;101939.78;5089850;28;20027;-75
2023/09/06 04:20:30;;;;;;;7.78;3.60;;;;;;;28.22;44.63;101947.44;5084697;28;20024;-74
2023/09/06 04:22:57;;;;;;;;;;;;;;;28.06;44.94;101936.88;5090836;28;20507;-74
2023/09/06 04:25:23;;;;;;;7.15;4.22;;;;;;;28.12;45.08;101943.66;5093714;28;20011;-75
2023/09/06 04:27:54;;;;;;;5.78;3.88;;;;;;;28.05;45.27;101945.03;5093356;28;20027;-74
2023/09/06 04:30:24;;;;;;;6.13;3.85;;;;;;;27.83;45.67;101941.03;5088323;28;20088;-75
2023/09/06 04:32:51;;;;;;;7.63;4.30;;;;;;;27.98;44.93;101941.84;5074751;28;20029;-75
2023/09/06 04:35:17;;;;;;;6.65;3.63;;;;;;;27.51;46.13;101940.47;5073632;28;20086;-75
2023/09/06 04:37:43;;;;;;;7.32;4.20;;;;;;;27.86;45.42;101940.00;5078016;28;20023;-75
2023/09/06 04:40:13;;;;;;;6.18;3.78;;;;;;;28.05;45.10;101939.66;5091720;28;20250;-76
2023/09/06 04:42:41;;;;;;;8.15;4.32;;;;;;;28.06;45.25;101944.06;5093207;28;20032;-75
2023/09/06 04:45:09;;;;;;;7.47;3.95;;;;;;;27.63;45.82;101938.81;5093752;28;20019;-75
2023/09/06 04:47:36;;;;;;;6.15;3.97;;;;;;;27.82;45.64;101944.72;5092725;28;20486;-75
2023/09/06 04:50:03;;;;;;;4.47;3.00;;;;;;;27.80;45.58;101946.63;5092887;28;20030;-76
2023/09/06 04:52:29;;;;;;;5.68;4.10;;;;;;;27.70;45.49;101951.75;5094838;28;20031;-76
2023/09/06 04:54:54;;;;;;;6.55;3.75;;;;;;;27.53;46.15;101951.97;5091891;28;20020;-76
2023/09/06 04:57:20;;;;;;;5.18;3.85;;;;;;;27.63;46.12;101954.91;5092526;28;20395;-76
2023/09/06 04:59:46;;;;;;;6.60;4.00;;;;;;;27.87;45.08;101953.31;5090375;28;20112;-76
2023/09/06 05:02:11;;;;;;;7.72;4.65;;;;;;;27.73;45.73;101966.81;5071071;28;20512;-75
2023/09/06 05:04:37;;;;;;;8.82;3.88;;;;;;;27.88;45.39;101960.41;5055972;28;20031;-76
2023/09/06 05:07:05;;;;;;;8.07;4.72;;;;;;;27.73;45.81;101961.44;5039878;28;20029;-76
2023/09/06 05:09:31;;;;;;;6.22;4.32;;;;;;;27.51;45.98;101968.19;5035513;28;20044;-76
2023/09/06 05:11:57;;;;;;;6.13;4.13;;;;;;;27.28;46.75;101966.06;5052478;28;20064;-76
2023/09/06 05:14:22;;;;;;;7.53;4.40;;;;;;;27.15;47.25;101972.22;5056019;28;20052;-76
2023/09/06 05:16:48;;;;;;;5.82;3.90;;;;;;;27.00;47.51;101974.03;5072485;28;20104;-76
2023/09/06 05:19:13;;;;;;;9.05;4.57;;;;;;;27.25;46.96;101973.34;5073409;28;20032;-76
2023/09/06 05:21:39;;;;;;;9.00;4.18;;;;;;;27.74;45.75;101973.91;5055311;28;20024;-76
2023/09/06 05:24:04;;;;;;;6.07;4.25;;;;;;;27.52;46.34;101969.03;5055756;28;20111;-76
2023/09/06 05:26:33;;;;;;;6.63;4.15;;;;;;;27.51;46.69;101978.91;5073360;28;20321;-76
2023/09/06 05:28:59;;;;;;;7.05;3.85;;;;;;;27.41;46.83;101972.44;5055502;28;20086;-76
2023/09/06 05:31:24;;;;;;;6.43;4.00;;;;;;;27.64;46.32;101967.38;5044571;28;20037;-76
2023/09/06 05:33:50;;;;;;;7.65;4.43;;;;;;;27.57;46.46;101978.53;5055395;28;20024;-76
2023/09/06 05:36:15;;;;;;;6.30;4.40;;;;;;;27.89;45.74;101983.63;5045651;28;20032;-76
2023/09/06 05:38:40;;;;;;;6.35;4.40;;;;;;;27.52;46.44;101985.13;5038906;28;20034;-76
2023/09/06 05:41:06;;;;;;;6.63;4.32;;;;;;;27.50;46.86;101985.25;5054981;28;20032;-76
2023/09/06 05:43:32;;;;;;;6.40;4.20;;;;;;;27.37;46.89;101987.00;5054888;28;20054;-76
2023/09/06 05:45:57;;;;;;;6.32;4.43;;;;;;;27.48;46.78;101983.63;5055938;28;20143;-76
2023/09/06 05:48:22;;;;;;;9.32;4.53;;;;;;;27.56;46.66;101984.88;5072638;28;20029;-76
2023/09/06 05:50:48;;;;;;;5.85;4.47;;;;;;;27.49;47.00;101991.59;5053963;28;20113;-76
2023/09/06 05:53:13;;;;;;;6.22;4.68;;;;;;;27.50;47.01;101993.28;5054781;28;20038;-75
2023/09/06 05:55:39;;;;;;;6.95;4.57;;;;;;;27.28;47.61;101996.44;5073078;28;20036;-76
2023/09/06 05:58:04;;;;;;;4.75;3.92;;;;;;;27.43;47.26;101991.97;5072783;28;20546;-76
2023/09/06 06:00:30;;;;;;;8.02;4.22;;;;;;;27.56;46.80;101997.41;5067139;28;20052;-76
2023/09/06 06:02:58;;;;;;;6.22;4.25;;;;;;;27.87;46.06;101993.59;5091148;28;20027;-77
2023/09/06 06:05:24;;;;;;;6.57;4.43;;;;;;;27.81;46.09;101995.81;5072688;28;20476;-77
2023/09/06 06:07:49;;;;;;;6.40;4.03;;;;;;;27.62;46.42;101990.81;5078891;28;20031;-72
2023/09/06 06:10:15;;;;;;;7.32;5.63;;;;;;;27.84;46.31;101996.50;5090241;28;20032;-73
2023/09/06 06:12:41;;;;;;;7.97;4.45;;;;;;;27.84;46.22;102001.88;5078411;28;20075;-72
2023/09/06 06:15:13;;;;;;;5.55;4.07;;;;;;;28.16;45.65;101995.38;5103589;27;20036;-73
2023/09/06 06:17:39;;;;;;;6.45;3.90;;;;;;;27.87;46.41;102000.81;5072046;28;20028;-72
2023/09/06 06:20:06;;;;;;;6.53;4.40;;;;;;;27.69;46.78;101997.50;5085260;28;20036;-73
2023/09/06 06:22:37;;;;;;;7.28;4.43;;;;;;;28.06;45.99;102005.88;5071635;28;20376;-73
2023/09/06 06:25:04;;;;;;;8.02;4.85;;;;;;;27.82;46.76;102002.94;5087742;28;20043;-73
2023/09/06 06:27:29;;;;;;;6.95;4.55;;;;;;;28.31;46.00;102010.47;5073777;28;20028;-73
2023/09/06 06:29:55;;;;;;;7.25;4.60;;;;;;;28.23;45.81;102002.94;5090339;28;20486;-73
2023/09/06 06:32:20;;;;;;;6.15;4.32;;;;;;;28.15;45.81;102016.03;5072251;28;20466;-73
2023/09/06 06:34:49;;;;;;;6.03;4.20;;;;;;;28.44;45.75;102010.53;5072539;28;20021;-73
2023/09/06 06:37:15;;;;;;;9.38;4.55;;;;;;;28.34;45.60;102014.78;5069222;28;20036;-73
2023/09/06 06:39:40;;;;;;;7.10;4.80;;;;;;;28.30;46.11;102018.63;5088740;28;20040;-73
2023/09/06 06:42:06;;;;;;;8.30;4.22;;;;;;;28.10;46.64;102028.91;5088239;28;20472;-73
2023/09/06 06:44:32;;;;;;;9.95;4.78;;;;;;;28.08;47.04;102031.69;5074984;28;20189;-73
2023/09/06 06:46:59;;;;;;;8.77;4.63;;;;;;;28.26;46.56;102023.34;5068215;28;20052;-73
2023/09/06 06:49:25;;;;;;;8.95;4.88;;;;;;;28.26;46.73;102018.84;5075088;28;20027;-73
2023/09/06 06:51:50;;;;;;;5.95;4.00;;;;;;;28.72;45.77;102020.28;5089871;28;20044;-74
2023/09/06 06:54:16;;;;;;;6.57;4.47;;;;;;;28.48;46.63;102025.47;5080277;28;20100;-72
2023/09/06 06:56:42;;;;;;;6.32;4.25;;;;;;;28.47;46.97;102034.50;5080281;28;20017;-73
2023/09/06 06:59:08;;;;;;;7.75;4.65;;;;;;;28.80;46.07;102030.53;5069400;28;20040;-73
2023/09/06 07:01:34;;;;;;;5.53;4.22;;;;;;;29.03;45.90;102017.28;5082543;28;20690;-73
2023/09/06 07:04:00;;;;;;;7.28;4.80;;;;;;;29.16;45.78;102028.06;5079929;28;20047;-72
2023/09/06 07:06:26;;;;;;;7.05;4.93;;;;;;;29.18;45.71;102032.38;5075250;28;20028;-73
2023/09/06 07:08:53;;;;;;;7.18;4.70;;;;;;;29.08;46.32;102020.50;5082538;28;20028;-73
2023/09/06 07:11:19;;;;;;;6.80;4.63;;;;;;;28.93;46.81;102017.94;5078243;28;20090;-73
2023/09/06 07:13:49;;;;;;;7.75;4.50;;;;;;;28.53;47.25;102035.91;5072186;28;20419;-72
2023/09/06 07:16:17;;;;;;;7.70;5.25;;;;;;;28.16;48.90;102039.22;5069842;28;20071;-73
2023/09/06 07:18:43;;;;;;;9.45;5.35;;;;;;;28.75;47.19;102035.34;5078544;28;20115;-73
2023/09/06 07:21:09;;;;;;;10.90;4.88;;;;;;;29.14;46.15;102032.69;5082932;28;20039;-73
2023/09/06 07:23:35;;;;;;;7.07;5.00;;;;;;;28.93;46.15;102034.09;5085693;28;20024;-73
2023/09/06 07:26:00;;;;;;;10.00;4.70;;;;;;;29.64;45.34;102043.56;5078400;28;20496;-73
2023/09/06 07:28:34;;;;;;;6.30;4.80;;;;;;;29.75;45.41;102044.47;5086413;28;20127;-72
2023/09/06 07:31:00;;;;;;;7.47;5.53;;;;;;;31.90;41.63;102052.38;5088825;28;20432;-72
2023/09/06 07:33:25;;;;;;;7.25;3.95;;;;;;;33.28;39.24;102041.66;5087392;28;20020;-72
2023/09/06 07:35:51;;;;;;;6.72;4.40;;;;;;;34.08;36.23;102049.06;5086487;28;20028;-72
2023/09/06 07:38:16;;;;;;;6.75;4.28;;;;;;;34.90;35.43;102050.50;5085182;28;20028;-72
2023/09/06 07:40:41;;;;;;;6.60;3.88;;;;;;;36.52;32.81;102055.50;5070246;28;20033;-70
2023/09/06 07:43:07;;;;;;;7.95;3.58;;;;;;;37.80;30.91;102046.72;5073470;28;20392;-70
2023/09/06 07:45:32;;;;;;;5.13;3.28;;;;;;;38.58;30.00;102045.44;5070626;28;20070;-70
2023/09/06 07:47:58;;;;;;;8.52;3.78;;;;;;;38.71;29.94;102052.28;5068828;28;20484;-70
2023/09/06 07:50:23;;;;;;;6.38;3.67;;;;;;;38.99;28.53;102056.34;5067550;28;20093;-70
2023/09/06 07:52:48;;;;;;;5.38;3.83;;;;;;;38.83;28.99;102046.28;5069299;28;20076;-71
2023/09/06 07:55:14;;;;;;;4.97;3.38;;;;;;;38.70;30.25;102056.88;5077304;28;20111;-70
2023/09/06 07:57:39;;;;;;;5.63;3.47;;;;;;;39.59;28.15;102062.28;5084938;28;20090;-70
2023/09/06 08:00:06;;;;;;;7.47;3.92;;;;;;;39.65;27.74;102061.59;5083940;28;20054;-71
2023/09/06 08:02:31;;;;;;;5.90;3.70;;;;;;;40.91;26.71;102061.31;5088218;28;20032;-70
2023/09/06 08:04:57;;;;;;;4.25;2.97;;;;;;;40.24;27.49;102068.41;5081889;28;20085;-70
2023/09/06 08:07:23;;;;;;;7.10;3.55;;;;;;;39.83;27.08;102060.44;5071900;28;20020;-71
2023/09/06 08:09:49;;;;;;;6.05;3.47;;;;;;;40.62;26.56;102071.19;5073741;28;20032;-71
2023/09/06 08:12:14;;;;;;;6.93;3.40;;;;;;;38.63;28.33;102064.88;5071601;28;20127;-71
2023/09/06 08:14:41;;;;;;;5.93;3.88;;;;;;;38.14;29.69;102063.00;5079962;28;20096;-71
2023/09/06 08:17:08;;;;;;;5.88;3.58;;;;;;;38.10;30.47;102063.47;5092791;28;20020;-70
2023/09/06 08:19:33;;;;;;;8.07;3.95;;;;;;;37.56;31.10;102072.84;5081111;28;20024;-71
2023/09/06 08:21:59;;;;;;;3.80;3.17;;;;;;;36.79;31.95;102070.81;5074160;28;20569;-71
2023/09/06 08:24:24;;;;;;;6.00;4.13;;;;;;;36.34;32.99;102067.25;5087286;28;20028;-70
2023/09/06 08:26:49;;;;;;;5.22;3.88;;;;;;;36.60;32.75;102071.91;5089979;28;20032;-70
2023/09/06 08:29:15;;;;;;;7.28;3.85;;;;;;;36.20;33.11;102075.06;5070896;28;20077;-70
2023/09/06 08:31:40;;;;;;;4.95;3.72;;;;;;;36.93;32.50;102072.19;5071846;28;20040;-70
2023/09/06 08:34:07;;;;;;;6.90;3.55;;;;;;;37.34;31.61;102067.00;5084740;28;20047;-70
2023/09/06 08:36:33;;;;;;;5.18;3.38;;;;;;;37.54;31.85;102063.13;5078043;28;20024;-70
2023/09/06 08:38:58;;;;;;;6.50;3.70;;;;;;;37.57;31.12;102069.13;5072427;28;20035;-71
2023/09/06 08:41:26;;;;;;;8.27;3.90;;;;;;;38.47;29.85;102070.34;5072417;28;20032;-70
2023/09/06 08:43:52;;;;;;;4.20;3.20;;;;;;;38.39;30.06;102068.50;5087711;28;20020;-71
2023/09/06 08:46:22;;;;;;;5.40;3.50;;;;;;;39.45;28.83;102074.81;5092127;28;20107;-70
2023/09/06 08:48:49;;;;;;;4.45;3.28;;;;;;;39.18;29.08;102074.22;5086988;28;20044;-70
2023/09/06 08:51:15;;;;;;;7.93;3.50;;;;;;;38.02;30.41;102072.53;5082706;28;20112;-70
2023/09/06 08:53:43;;;;;;;4.22;3.35;;;;;;;37.88;30.87;102073.16;5089465;28;20020;-70
2023/09/06 08:56:09;;;;;;;6.13;3.70;;;;;;;36.51;32.78;102079.13;5085289;28;20136;-70
2023/09/06 08:58:35;;;;;;;5.50;3.83;;;;;;;36.53;32.96;102076.25;5078594;28;20027;-70
2023/09/06 09:01:04;;;;;;;5.00;3.60;;;;;;;36.25;33.93;102078.19;5076931;28;20144;-70
2023/09/06 09:03:29;;;;;;;10.55;4.03;;;;;;;36.45;32.91;102081.63;5051317;28;20032;-70
2023/09/06 09:06:06;;;;;;;5.60;3.50;;;;;;;36.61;33.09;102073.59;5050732;28;20029;-70
2023/09/06 09:08:32;;;;;;;6.45;3.90;;;;;;;37.13;32.24;102074.66;5059629;28;20063;-70
2023/09/06 09:11:15;;;;;;;5.13;3.85;;;;;;;37.58;31.10;102068.09;5060392;28;20480;-70
2023/09/06 09:13:42;;;;;;;5.45;3.80;;;;;;;36.52;32.00;102080.00;5072766;28;20074;-70
2023/09/06 09:16:12;;;;;;;7.43;4.07;;;;;;;35.93;33.28;102074.97;5047973;28;20063;-70
2023/09/06 09:18:39;;;;;;;4.55;3.40;;;;;;;36.96;32.91;102060.94;5045567;28;20156;-70
2023/09/06 09:21:07;;;;;;;6.00;3.45;;;;;;;36.99;32.90;102071.53;5035827;28;20192;-70
2023/09/06 09:23:40;;;;;;;5.68;3.38;;;;;;;36.99;32.47;102066.06;5054834;28;20028;-70
2023/09/06 09:26:08;;;;;;;8.23;3.20;;;;;;;37.27;31.83;102068.59;5063566;28;20578;-70
2023/09/06 09:28:34;;;;;;;4.65;3.30;;;;;;;37.80;30.76;102063.09;5053318;28;20116;-70
2023/09/06 09:31:00;;;;;;;5.90;3.13;;;;;;;37.11;30.98;102063.06;5052520;28;20033;-70
2023/09/06 09:33:28;;;;;;;4.20;3.03;;;;;;;37.32;30.69;102066.28;5051258;28;20365;-70
2023/09/06 09:35:53;;;;;;;3.80;3.35;;;;;;;38.23;29.78;102069.31;5045138;28;20032;-69
2023/09/06 09:38:19;;;;;;;4.35;3.08;;;;;;;39.05;29.15;102067.56;5050272;28;20264;-71
2023/09/06 09:40:44;;;;;;;4.22;2.92;;;;;;;38.81;28.73;102070.19;5042430;28;20048;-70
2023/09/06 09:43:09;;;;;;;4.68;3.38;;;;;;;37.79;29.94;102066.84;5053059;28;20031;-70
2023/09/06 09:45:41;;;;;;;5.78;4.03;;;;;;;38.38;29.87;102074.13;5043664;28;20017;-71
2023/09/06 09:48:07;;;;;;;5.97;3.30;;;;;;;38.78;29.50;102072.41;5037614;28;20189;-70
2023/09/06 09:50:34;;;;;;;4.00;3.05;;;;;;;39.60;28.48;102072.22;5067896;28;20040;-70
2023/09/06 09:53:03;;;;;;;7.20;3.42;;;;;;;39.23;29.01;102070.97;5051922;28;20028;-70
2023/09/06 09:55:34;;;;;;;5.45;3.40;;;;;;;38.26;30.87;102074.44;5050324;28;20032;-70
2023/09/06 09:58:05;;;;;;;4.93;3.97;;;;;;;37.94;31.64;102067.88;5070425;28;20129;-70
2023/09/06 10:00:31;;;;;;;5.32;3.65;;;;;;;36.77;32.84;102066.59;5072395;28;20082;-70
2023/09/06 10:02:58;;;;;;;6.30;4.50;;;;;;;37.92;31.23;102067.22;5049888;28;20499;-70
2023/09/06 10:05:29;;;;;;;5.60;3.80;;;;;;;37.57;31.82;102062.81;5043283;28;20063;-70
2023/09/06 10:07:55;;;;;;;8.48;4.35;;;;;;;37.51;31.53;102061.59;5032966;28;20488;-70
2023/09/06 10:10:24;;;;;;;6.25;3.80;;;;;;;37.54;31.64;102064.00;5034721;28;20037;-70
2023/09/06 10:12:51;;;;;;;6.68;4.57;;;;;;;37.84;31.33;102061.75;5036029;28;20025;-70
2023/09/06 10:15:23;;;;;;;6.97;4.35;;;;;;;37.38;32.21;102063.94;5033885;28;20025;-71
2023/09/06 10:17:50;;;;;;;6.90;4.20;;;;;;;37.78;31.74;102065.13;5041807;28;20089;-70
2023/09/06 10:20:23;;;;;;;10.07;5.15;;;;;;;37.16;32.74;102066.16;5048453;28;20476;-70
2023/09/06 10:22:52;;;;;;;5.43;3.85;;;;;;;37.42;32.17;102070.75;5036510;28;20036;-70
2023/09/06 10:25:18;;;;;;;6.43;4.18;;;;;;;37.56;31.33;102067.41;5043542;28;20309;-70
2023/09/06 10:27:53;;;;;;;4.82;3.67;;;;;;;36.90;31.88;102064.31;5053010;28;20447;-70
2023/09/06 10:30:46;;;;;;;5.43;3.97;;;;;;;37.18;31.59;102061.44;5048341;28;20042;-70
2023/09/06 10:33:33;;;;;;;3.88;3.03;;;;;;;37.82;32.36;102056.44;5036389;28;20013;-70
2023/09/06 10:36:03;;;;;;;5.43;3.55;;;;;;;37.03;32.80;102060.28;5057377;28;20111;-70
2023/09/06 10:38:30;;;;;;;5.57;3.60;;;;;;;37.38;32.29;102053.03;5048586;28;20388;-70
2023/09/06 10:40:56;;;;;;;4.80;2.90;;;;;;;37.35;32.41;102060.50;5046580;28;20024;-69
2023/09/06 10:43:43;;;;;;;4.85;3.05;;;;;;;37.17;32.62;102054.25;5049692;28;20086;-69
2023/09/06 10:46:08;;;;;;;5.20;2.83;;;;;;;37.71;31.69;102053.16;5032101;28;20021;-70
2023/09/06 10:48:34;;;;;;;3.45;2.30;;;;;;;37.90;30.88;102057.50;5031967;28;20378;-70
2023/09/06 10:51:03;;;;;;;4.13;2.70;;;;;;;37.39;31.78;102046.56;5056300;28;20031;-70
2023/09/06 10:53:30;;;;;;;3.88;2.42;;;;;;;37.56;31.44;102051.03;5044089;28;20037;-70
2023/09/06 10:55:56;;;;;;;5.25;2.42;;;;;;;37.99;30.90;102046.41;5032687;28;20477;-70
2023/09/06 10:58:23;;;;;;;6.03;2.20;;;;;;;38.00;31.38;102042.69;5053984;28;20028;-70
2023/09/06 11:01:18;;;;;;;2.90;2.25;;;;;;;37.84;31.55;102042.66;5065075;28;20048;-70
2023/09/06 11:03:48;;;;;;;6.88;2.67;;;;;;;37.67;31.73;102050.75;5088616;28;20118;-70
2023/09/06 11:06:14;;;;;;;3.30;2.53;;;;;;;37.91;31.68;102049.13;5069404;28;20024;-71
2023/09/06 11:08:40;;;;;;;3.83;2.33;;;;;;;37.52;31.93;102046.94;5069326;28;20021;-68
2023/09/06 11:11:09;;;;;;;6.47;2.58;;;;;;;37.76;31.68;102045.34;5073195;28;20050;-71
2023/09/06 11:13:38;;;;;;;4.40;2.35;;;;;;;37.84;31.14;102048.94;5075970;28;20118;-71
2023/09/06 11:16:05;;;;;;;5.50;2.47;;;;;;;37.90;31.77;102041.97;5083093;28;20020;-71
2023/09/06 11:18:33;;;;;;;5.60;2.97;;;;;;;37.59;31.65;102050.72;5068710;28;20033;-71
2023/09/06 11:20:59;;;;;;;3.72;2.47;;;;;;;38.04;31.54;102042.34;5068254;28;20162;-72
2023/09/06 11:23:26;;;;;;;4.00;2.70;;;;;;;38.09;30.71;102039.97;5067459;28;20567;-71
2023/09/06 11:25:58;;;;;;;4.00;2.28;;;;;;;38.41;30.79;102043.75;5068741;28;20024;-71
2023/09/06 11:28:24;;;;;;;4.80;2.00;;;;;;;37.60;31.33;102036.06;5072944;28;20049;-71